createdAt,value
2023-03-04T00:00:46.345Z,9.67
2023-03-04T00:03:17.301Z,9.66
2023-03-04T00:05:45.033Z,9.68
2023-03-04T00:08:12.584Z,9.70
2023-03-04T00:10:40.477Z,9.64
2023-03-04T00:13:08.513Z,9.62
2023-03-04T00:15:37.080Z,9.38
2023-03-04T00:18:04.684Z,9.25
2023-03-04T00:20:32.185Z,9.20
2023-03-04T00:22:59.640Z,9.13
2023-03-04T00:25:27.212Z,9.09
2023-03-04T00:27:55.721Z,9.02
2023-03-04T00:30:23.632Z,8.99
2023-03-04T00:32:51.295Z,8.83
2023-03-04T00:35:18.970Z,8.82
2023-03-04T00:37:46.608Z,8.74
2023-03-04T00:40:14.342Z,8.88
2023-03-04T00:42:42.463Z,8.92
2023-03-04T00:45:10.431Z,9.02
2023-03-04T00:47:39.009Z,9.06
2023-03-04T00:50:07.240Z,9.07
2023-03-04T00:52:35.032Z,8.91
2023-03-04T00:55:02.504Z,8.73
2023-03-04T00:57:30.053Z,8.46
2023-03-04T00:59:57.978Z,8.41
2023-03-04T01:02:25.520Z,8.37
2023-03-04T01:04:53.874Z,8.37
2023-03-04T01:07:22.569Z,8.40
2023-03-04T01:09:50.442Z,8.44
2023-03-04T01:12:19.052Z,8.54
2023-03-04T01:14:47.262Z,8.55
2023-03-04T01:17:14.842Z,8.54
2023-03-04T01:19:42.975Z,8.55
2023-03-04T01:22:12.419Z,8.59
2023-03-04T01:24:40.574Z,8.58
2023-03-04T01:27:08.671Z,8.62
2023-03-04T01:29:36.223Z,8.50
2023-03-04T01:32:04.565Z,8.50
2023-03-04T01:34:32.559Z,8.79
2023-03-04T01:37:00.098Z,8.74
2023-03-04T01:39:28.942Z,8.75
2023-03-04T01:41:57.448Z,8.73
2023-03-04T01:44:25.539Z,8.65
2023-03-04T01:46:55.238Z,8.73
2023-03-04T01:49:25.290Z,8.71
2023-03-04T01:51:54.995Z,8.75
2023-03-04T01:54:23.332Z,8.62
2023-03-04T01:56:52.854Z,8.57
2023-03-04T01:59:25.970Z,8.55
2023-03-04T02:02:00.455Z,8.49
2023-03-04T02:04:34.488Z,8.48
2023-03-04T02:07:03.516Z,8.50
2023-03-04T02:09:33.228Z,8.43
2023-03-04T02:12:02.014Z,8.69
2023-03-04T02:14:29.747Z,8.74
2023-03-04T02:16:57.604Z,8.83
2023-03-04T02:19:37.606Z,8.95
2023-03-04T02:22:05.533Z,8.89
2023-03-04T02:24:41.777Z,8.86
2023-03-04T02:27:09.995Z,8.72
2023-03-04T02:29:37.988Z,8.72
2023-03-04T02:32:06.116Z,8.75
2023-03-04T02:34:35.918Z,8.70
2023-03-04T02:37:04.729Z,8.76
2023-03-04T02:39:40.514Z,8.80
2023-03-04T02:42:08.652Z,8.75
2023-03-04T02:44:46.180Z,8.51
2023-03-04T02:47:17.933Z,8.40
2023-03-04T02:49:47.474Z,8.53
2023-03-04T02:52:22.776Z,8.59
2023-03-04T02:54:51.300Z,8.69
2023-03-04T02:57:19.267Z,8.57
2023-03-04T02:59:51.721Z,8.50
2023-03-04T03:02:22.717Z,8.28
2023-03-04T03:04:50.596Z,8.23
2023-03-04T03:07:20.303Z,8.19
2023-03-04T03:09:49.248Z,8.26
2023-03-04T03:12:18.862Z,8.39
2023-03-04T03:14:47.405Z,8.40
2023-03-04T03:17:18.652Z,8.27
2023-03-04T03:19:47.729Z,8.18
2023-03-04T03:22:15.975Z,8.25
2023-03-04T03:24:43.664Z,8.17
2023-03-04T03:27:11.131Z,8.10
2023-03-04T03:29:40.372Z,8.09
2023-03-04T03:32:09.765Z,8.10
2023-03-04T03:34:37.909Z,8.04
2023-03-04T03:37:06.119Z,8.11
2023-03-04T03:39:33.944Z,8.08
2023-03-04T03:42:01.477Z,8.01
2023-03-04T03:44:29.111Z,8.02
2023-03-04T03:46:58.408Z,7.96
2023-03-04T03:49:26.000Z,7.88
2023-03-04T03:51:53.947Z,7.83
2023-03-04T03:54:21.958Z,7.73
2023-03-04T03:56:49.900Z,7.67
2023-03-04T03:59:18.043Z,7.65
2023-03-04T04:01:46.555Z,7.58
2023-03-04T04:04:14.148Z,7.59
2023-03-04T04:06:41.700Z,7.45
2023-03-04T04:09:09.589Z,7.40
2023-03-04T04:11:37.652Z,7.39
2023-03-04T04:14:05.968Z,7.37
2023-03-04T04:16:33.587Z,7.33
2023-03-04T04:19:01.311Z,7.33
2023-03-04T04:21:28.955Z,7.32
2023-03-04T04:23:56.935Z,7.27
2023-03-04T04:26:25.285Z,7.26
2023-03-04T04:28:52.778Z,7.14
2023-03-04T04:31:20.802Z,7.22
2023-03-04T04:33:48.338Z,7.19
2023-03-04T04:36:17.481Z,7.09
2023-03-04T04:38:45.755Z,7.10
2023-03-04T04:41:23.958Z,7.08
2023-03-04T04:43:52.536Z,7.05
2023-03-04T04:46:21.287Z,7.11
2023-03-04T04:48:49.924Z,7.19
2023-03-04T04:51:17.451Z,7.22
2023-03-04T04:53:45.413Z,7.03
2023-03-04T04:56:19.649Z,6.87
2023-03-04T04:58:48.603Z,6.91
2023-03-04T05:01:16.840Z,6.96
2023-03-04T05:03:44.450Z,6.99
2023-03-04T05:06:13.647Z,6.89
2023-03-04T05:08:41.328Z,6.79
2023-03-04T05:11:10.018Z,6.77
2023-03-04T05:13:37.636Z,6.66
2023-03-04T05:16:05.748Z,6.64
2023-03-04T05:18:33.547Z,6.64
2023-03-04T05:21:02.143Z,6.59
2023-03-04T05:23:33.995Z,6.56
2023-03-04T05:26:02.739Z,6.55
2023-03-04T05:28:30.893Z,6.51
2023-03-04T05:30:58.583Z,6.52
2023-03-04T05:33:26.459Z,6.49
2023-03-04T05:35:55.192Z,6.34
2023-03-04T05:38:23.337Z,6.34
2023-03-04T05:40:57.488Z,6.34
2023-03-04T05:43:26.617Z,6.33
2023-03-04T05:45:55.161Z,6.39
2023-03-04T05:48:23.421Z,6.29
2023-03-04T05:50:56.736Z,6.14
2023-03-04T05:53:25.026Z,6.11
2023-03-04T05:55:52.625Z,6.20
2023-03-04T05:58:20.850Z,6.26
2023-03-04T06:00:48.534Z,6.40
2023-03-04T06:03:19.281Z,6.45
2023-03-04T06:05:48.089Z,6.57
2023-03-04T06:08:16.163Z,6.56
2023-03-04T06:10:43.669Z,6.59
2023-03-04T06:13:11.943Z,6.70
2023-03-04T06:15:40.897Z,6.54
2023-03-04T06:18:09.122Z,6.47
2023-03-04T06:20:37.608Z,6.65
2023-03-04T06:23:05.912Z,6.58
2023-03-04T06:25:33.422Z,6.76
2023-03-04T06:28:00.933Z,6.83
2023-03-04T06:30:28.930Z,6.97
2023-03-04T06:32:56.456Z,7.17
2023-03-04T06:35:24.067Z,7.26
2023-03-04T06:37:52.636Z,7.23
2023-03-04T06:40:20.622Z,7.36
2023-03-04T06:42:49.112Z,7.50
2023-03-04T06:45:16.986Z,7.59
2023-03-04T06:47:45.148Z,7.72
2023-03-04T06:50:13.950Z,7.95
2023-03-04T06:52:41.517Z,7.98
2023-03-04T06:55:09.391Z,8.00
2023-03-04T06:57:36.935Z,8.23
2023-03-04T07:00:06.441Z,8.38
2023-03-04T07:02:34.897Z,8.55
2023-03-04T07:05:03.536Z,8.73
2023-03-04T07:07:31.487Z,8.86
2023-03-04T07:09:59.443Z,9.00
2023-03-04T07:12:26.964Z,9.21
2023-03-04T07:14:55.120Z,9.42
2023-03-04T07:17:22.974Z,9.32
2023-03-04T07:19:50.542Z,9.37
2023-03-04T07:22:18.100Z,9.41
2023-03-04T07:24:46.045Z,9.72
2023-03-04T07:27:13.561Z,9.89
2023-03-04T07:29:41.976Z,10.07
2023-03-04T07:32:10.423Z,10.01
2023-03-04T07:34:38.053Z,10.31
2023-03-04T07:37:05.584Z,10.51
2023-03-04T07:39:33.547Z,10.58
2023-03-04T07:42:02.093Z,10.72
2023-03-04T07:44:29.696Z,10.92
2023-03-04T07:46:57.566Z,11.30
2023-03-04T07:49:25.623Z,11.21
2023-03-04T07:51:57.215Z,11.30
2023-03-04T07:54:24.808Z,11.22
2023-03-04T07:56:53.858Z,11.11
2023-03-04T07:59:21.843Z,10.96
2023-03-04T08:01:49.750Z,10.99
2023-03-04T08:04:17.366Z,11.23
2023-03-04T08:06:45.799Z,11.44
2023-03-04T08:09:14.109Z,11.55
2023-03-04T08:11:42.765Z,11.54
2023-03-04T08:14:13.023Z,11.48
2023-03-04T08:16:40.973Z,11.68
2023-03-04T08:19:09.593Z,11.98
2023-03-04T08:21:37.980Z,12.01
2023-03-04T08:24:08.918Z,11.52
2023-03-04T08:26:42.084Z,12.07
2023-03-04T08:29:16.803Z,11.90
2023-03-04T08:31:48.774Z,12.31
2023-03-04T08:34:17.782Z,11.60
2023-03-04T08:36:45.958Z,12.11
2023-03-04T08:39:15.644Z,12.50
2023-03-04T08:41:43.331Z,12.55
2023-03-04T08:44:12.206Z,12.59
2023-03-04T08:46:41.552Z,12.96
2023-03-04T08:49:11.130Z,13.25
2023-03-04T08:51:39.102Z,13.37
2023-03-04T08:54:07.173Z,13.08
2023-03-04T08:56:35.151Z,13.45
2023-03-04T08:59:03.667Z,14.04
2023-03-04T09:01:32.099Z,14.70
2023-03-04T09:03:59.765Z,14.28
2023-03-04T09:06:27.984Z,15.61
2023-03-04T09:08:55.966Z,16.05
2023-03-04T09:11:23.607Z,14.71
2023-03-04T09:13:51.949Z,14.32
2023-03-04T09:16:19.725Z,15.75
2023-03-04T09:18:47.435Z,15.22
2023-03-04T09:21:16.490Z,16.57
2023-03-04T09:23:44.519Z,17.37
2023-03-04T09:26:25.406Z,16.77
2023-03-04T09:28:58.125Z,16.34
2023-03-04T09:31:27.006Z,17.76
2023-03-04T09:33:57.302Z,18.28
2023-03-04T09:36:25.573Z,17.79
2023-03-04T09:38:53.506Z,18.63
2023-03-04T09:41:37.282Z,19.42
2023-03-04T09:44:15.616Z,19.37
2023-03-04T09:46:46.191Z,19.02
2023-03-04T09:49:15.189Z,18.62
2023-03-04T09:51:59.629Z,18.13
2023-03-04T09:54:48.433Z,17.95
2023-03-04T09:57:45.848Z,17.42
2023-03-04T10:00:26.423Z,17.37
2023-03-04T10:03:12.094Z,17.00
2023-03-04T10:05:55.531Z,17.63
2023-03-04T10:08:42.257Z,17.27
2023-03-04T10:11:16.497Z,17.53
2023-03-04T10:14:21.567Z,18.90
2023-03-04T10:16:59.536Z,19.69
2023-03-04T10:19:57.265Z,19.73
2023-03-04T10:22:42.225Z,20.43
2023-03-04T10:25:19.306Z,20.99
2023-03-04T10:28:13.009Z,19.83
2023-03-04T10:30:51.523Z,19.85
2023-03-04T10:33:26.670Z,21.43
2023-03-04T10:36:18.259Z,20.46
2023-03-04T10:38:46.324Z,20.31
2023-03-04T10:41:26.289Z,20.79
2023-03-04T10:43:59.937Z,21.78
2023-03-04T10:46:27.393Z,21.22
2023-03-04T10:48:55.823Z,20.18
2023-03-04T10:51:29.276Z,21.85
2023-03-04T10:54:10.376Z,22.21
2023-03-04T10:56:45.542Z,23.36
2023-03-04T10:59:41.359Z,22.08
2023-03-04T11:02:22.486Z,21.14
2023-03-04T11:05:17.836Z,21.82
2023-03-04T11:07:59.135Z,22.99
2023-03-04T11:10:36.334Z,22.76
2023-03-04T11:13:20.478Z,22.89
2023-03-04T11:15:58.116Z,22.42
2023-03-04T11:18:47.798Z,22.34
2023-03-04T11:21:25.357Z,21.97
2023-03-04T11:24:01.986Z,20.92
2023-03-04T11:26:41.182Z,20.01
2023-03-04T11:29:32.343Z,21.30
2023-03-04T11:32:27.655Z,22.33
2023-03-04T11:35:07.487Z,22.45
2023-03-04T11:37:46.071Z,20.46
2023-03-04T11:40:28.852Z,19.97
2023-03-04T11:43:12.553Z,20.90
2023-03-04T11:46:27.020Z,20.33
2023-03-04T11:49:29.396Z,20.49
2023-03-04T11:52:18.812Z,20.67
2023-03-04T11:54:59.084Z,21.81
2023-03-04T11:57:38.844Z,22.06
2023-03-04T12:00:25.093Z,21.98
2023-03-04T12:03:04.454Z,21.70
2023-03-04T12:05:56.954Z,21.82
2023-03-04T12:08:43.312Z,21.67
2023-03-04T12:11:45.796Z,22.36
2023-03-04T12:14:21.872Z,22.66
2023-03-04T12:17:09.715Z,22.00
2023-03-04T12:20:08.663Z,21.99
2023-03-04T12:23:02.510Z,22.46
2023-03-04T12:25:37.117Z,22.31
2023-03-04T12:28:27.769Z,22.27
2023-03-04T12:31:11.142Z,21.22
2023-03-04T12:33:49.049Z,21.24
2023-03-04T12:36:49.800Z,21.94
2023-03-04T12:39:27.511Z,21.82
2023-03-04T12:41:55.152Z,21.22
2023-03-04T12:44:23.595Z,21.45
2023-03-04T12:47:16.422Z,22.06
2023-03-04T12:49:57.038Z,23.75
2023-03-04T12:52:30.557Z,23.79
2023-03-04T12:55:18.290Z,22.63
2023-03-04T12:57:47.001Z,21.37
2023-03-04T13:00:46.205Z,21.86
2023-03-04T13:03:20.403Z,22.56
2023-03-04T13:05:58.378Z,22.62
2023-03-04T13:08:38.007Z,22.94
2023-03-04T13:11:28.182Z,22.30
2023-03-04T13:14:05.918Z,22.92
2023-03-04T13:16:41.577Z,23.53
2023-03-04T13:19:44.631Z,22.26
2023-03-04T13:22:30.386Z,20.26
2023-03-04T13:24:59.780Z,20.45
2023-03-04T13:27:48.720Z,22.08
2023-03-04T13:30:33.426Z,21.92
2023-03-04T13:33:10.489Z,22.67
2023-03-04T13:35:50.342Z,22.67
2023-03-04T13:38:23.736Z,21.62
2023-03-04T13:41:00.382Z,22.89
2023-03-04T13:43:36.626Z,23.38
2023-03-04T13:46:19.525Z,24.41
2023-03-04T13:48:50.926Z,24.69
2023-03-04T13:51:45.046Z,24.52
2023-03-04T13:54:21.679Z,24.74
2023-03-04T13:57:01.632Z,25.63
2023-03-04T14:00:06.504Z,26.79
2023-03-04T14:02:36.467Z,25.73
2023-03-04T14:05:04.734Z,25.29
2023-03-04T14:07:39.674Z,26.75
2023-03-04T14:10:14.987Z,25.12
2023-03-04T14:12:49.734Z,26.79
2023-03-04T14:15:24.844Z,27.93
2023-03-04T14:18:01.089Z,26.77
2023-03-04T14:20:37.142Z,27.24
2023-03-04T14:23:24.412Z,25.66
2023-03-04T14:25:52.346Z,26.33
2023-03-04T14:28:21.542Z,24.58
2023-03-04T14:30:54.761Z,25.02
2023-03-04T14:33:25.989Z,25.50
2023-03-04T14:35:57.258Z,25.08
2023-03-04T14:38:35.937Z,24.80
2023-03-04T14:41:21.611Z,25.91
2023-03-04T14:44:14.200Z,25.13
2023-03-04T14:47:04.646Z,24.50
2023-03-04T14:49:37.019Z,25.11
2023-03-04T14:52:05.226Z,26.10
2023-03-04T14:54:41.531Z,26.46
2023-03-04T14:57:29.945Z,27.06
2023-03-04T14:59:57.595Z,26.29
2023-03-04T15:02:39.731Z,27.42
2023-03-04T15:05:17.896Z,27.61
2023-03-04T15:07:58.465Z,27.24
2023-03-04T15:10:34.028Z,24.72
2023-03-04T15:13:03.966Z,24.35
2023-03-04T15:15:37.076Z,24.32
2023-03-04T15:18:26.331Z,24.41
2023-03-04T15:20:59.732Z,25.16
2023-03-04T15:23:29.556Z,24.03
2023-03-04T15:26:00.587Z,23.84
2023-03-04T15:28:37.835Z,22.67
2023-03-04T15:31:09.952Z,23.37
2023-03-04T15:33:41.511Z,22.89
2023-03-04T15:36:14.222Z,23.28
2023-03-04T15:38:50.351Z,23.19
2023-03-04T15:41:23.483Z,24.98
2023-03-04T15:43:52.944Z,25.58
2023-03-04T15:46:21.449Z,25.11
2023-03-04T15:48:49.571Z,23.67
2023-03-04T15:51:22.939Z,23.00
2023-03-04T15:53:53.442Z,22.19
2023-03-04T15:56:25.117Z,20.79
2023-03-04T15:58:56.728Z,20.30
2023-03-04T16:01:25.764Z,19.06
2023-03-04T16:03:53.957Z,17.52
2023-03-04T16:06:23.492Z,17.16
2023-03-04T16:08:52.311Z,16.89
2023-03-04T16:11:29.947Z,16.66
2023-03-04T16:13:58.671Z,16.59
2023-03-04T16:16:26.804Z,16.56
2023-03-04T16:18:54.294Z,16.16
2023-03-04T16:21:26.268Z,16.12
2023-03-04T16:23:54.774Z,16.14
2023-03-04T16:26:24.896Z,15.91
2023-03-04T16:28:53.719Z,15.85
2023-03-04T16:31:22.508Z,15.73
2023-03-04T16:33:50.446Z,15.70
2023-03-04T16:36:24.463Z,15.47
2023-03-04T16:38:55.924Z,15.45
2023-03-04T16:41:28.050Z,15.54
2023-03-04T16:43:57.061Z,15.31
2023-03-04T16:46:25.492Z,15.27
2023-03-04T16:48:54.057Z,15.29
2023-03-04T16:51:23.756Z,15.28
2023-03-04T16:54:00.300Z,15.03
2023-03-04T16:56:28.964Z,14.86
2023-03-04T16:58:56.585Z,14.86
2023-03-04T17:01:26.908Z,14.64
2023-03-04T17:03:55.822Z,14.65
2023-03-04T17:06:24.552Z,14.51
2023-03-04T17:08:52.709Z,14.28
2023-03-04T17:11:22.893Z,14.16
2023-03-04T17:13:51.608Z,14.29
2023-03-04T17:16:19.764Z,14.17
2023-03-04T17:18:47.366Z,14.08
2023-03-04T17:21:18.568Z,14.14
2023-03-04T17:23:46.685Z,14.03
2023-03-04T17:26:15.561Z,13.99
2023-03-04T17:28:43.541Z,13.71
2023-03-04T17:31:16.563Z,13.57
2023-03-04T17:33:45.408Z,13.47
2023-03-04T17:36:15.061Z,13.40
2023-03-04T17:38:43.299Z,13.41
2023-03-04T17:41:16.138Z,13.37
2023-03-04T17:43:50.635Z,13.37
2023-03-04T17:46:22.089Z,13.25
2023-03-04T17:48:52.346Z,13.23
2023-03-04T17:51:20.572Z,13.20
2023-03-04T17:53:48.571Z,13.10
2023-03-04T17:56:16.324Z,13.07
2023-03-04T17:58:44.389Z,12.94
2023-03-04T18:01:19.360Z,12.80
2023-03-04T18:03:47.848Z,12.88
2023-03-04T18:06:17.221Z,12.90
2023-03-04T18:08:45.896Z,12.73
2023-03-04T18:11:13.502Z,12.70
2023-03-04T18:13:43.472Z,12.70
2023-03-04T18:16:14.808Z,12.60
2023-03-04T18:18:43.846Z,12.51
2023-03-04T18:21:13.597Z,12.53
2023-03-04T18:23:41.845Z,12.59
2023-03-04T18:26:10.699Z,12.52
2023-03-04T18:28:38.938Z,12.46
2023-03-04T18:31:07.062Z,12.37
2023-03-04T18:33:35.123Z,12.27
2023-03-04T18:36:08.236Z,12.23
2023-03-04T18:38:35.991Z,12.28
2023-03-04T18:41:08.908Z,12.16
2023-03-04T18:43:36.900Z,12.19
2023-03-04T18:46:11.928Z,12.20
2023-03-04T18:48:43.552Z,12.14
2023-03-04T18:51:12.192Z,12.02
2023-03-04T18:53:40.862Z,12.05
2023-03-04T18:56:13.751Z,12.01
2023-03-04T18:58:44.598Z,11.88
2023-03-04T19:01:14.535Z,11.79
2023-03-04T19:03:43.767Z,11.82
2023-03-04T19:06:11.317Z,11.72
2023-03-04T19:08:39.298Z,11.74
2023-03-04T19:11:06.917Z,11.90
2023-03-04T19:13:35.314Z,11.81
2023-03-04T19:16:03.279Z,11.68
2023-03-04T19:18:30.941Z,11.82
2023-03-04T19:21:03.647Z,11.61
2023-03-04T19:23:33.829Z,11.60
2023-03-04T19:26:01.637Z,11.56
2023-03-04T19:28:29.684Z,11.53
2023-03-04T19:30:59.221Z,11.40
2023-03-04T19:33:27.599Z,11.30
2023-03-04T19:35:55.255Z,11.36
2023-03-04T19:38:23.647Z,11.35
2023-03-04T19:40:51.768Z,11.18
2023-03-04T19:43:19.487Z,11.20
2023-03-04T19:45:56.989Z,11.14
2023-03-04T19:48:25.149Z,11.21
2023-03-04T19:50:53.165Z,11.20
2023-03-04T19:53:21.188Z,11.13
2023-03-04T19:55:49.739Z,11.08
2023-03-04T19:58:18.488Z,11.11
2023-03-04T20:00:46.781Z,10.98
2023-03-04T20:03:14.907Z,11.05
2023-03-04T20:05:42.440Z,11.00
2023-03-04T20:08:09.985Z,10.98
2023-03-04T20:10:38.115Z,10.90
2023-03-04T20:13:08.581Z,10.97
2023-03-04T20:15:37.514Z,10.99
2023-03-04T20:18:05.345Z,10.84
2023-03-04T20:20:33.946Z,10.73
2023-03-04T20:23:01.690Z,10.59
2023-03-04T20:25:31.990Z,10.47
2023-03-04T20:27:59.645Z,10.50
2023-03-04T20:30:28.140Z,10.52
2023-03-04T20:32:56.856Z,10.50
2023-03-04T20:35:24.793Z,10.46
2023-03-04T20:37:52.796Z,10.55
2023-03-04T20:40:20.471Z,10.46
2023-03-04T20:42:48.639Z,10.36
2023-03-04T20:45:16.342Z,10.40
2023-03-04T20:47:43.781Z,10.30
2023-03-04T20:50:11.962Z,10.16
2023-03-04T20:52:40.288Z,10.30
2023-03-04T20:55:08.752Z,10.31
2023-03-04T20:57:36.289Z,10.32
2023-03-04T21:00:05.586Z,10.24
2023-03-04T21:02:33.669Z,10.18
2023-03-04T21:05:01.773Z,10.04
2023-03-04T21:07:29.387Z,10.04
2023-03-04T21:09:57.161Z,9.99
2023-03-04T21:12:26.194Z,9.84
2023-03-04T21:14:54.120Z,9.86
2023-03-04T21:17:24.489Z,9.84
2023-03-04T21:19:51.971Z,9.83
2023-03-04T21:22:20.524Z,9.85
2023-03-04T21:24:48.537Z,9.78
2023-03-04T21:27:17.028Z,9.65
2023-03-04T21:29:45.229Z,9.76
2023-03-04T21:32:27.095Z,9.78
2023-03-04T21:34:55.951Z,9.84
2023-03-04T21:37:25.145Z,9.71
2023-03-04T21:39:54.417Z,9.72
2023-03-04T21:42:22.672Z,9.64
2023-03-04T21:44:51.769Z,9.63
2023-03-04T21:47:21.034Z,9.55
2023-03-04T21:49:49.285Z,9.43
2023-03-04T21:52:19.640Z,9.40
2023-03-04T21:54:49.670Z,9.27
2023-03-04T21:57:18.018Z,9.23
2023-03-04T21:59:45.901Z,9.18
2023-03-04T22:02:16.955Z,9.13
2023-03-04T22:04:45.791Z,9.09
2023-03-04T22:07:14.772Z,9.03
2023-03-04T22:09:42.766Z,8.99
2023-03-04T22:12:10.606Z,9.09
2023-03-04T22:14:38.301Z,9.15
2023-03-04T22:17:07.022Z,9.19
2023-03-04T22:19:34.547Z,9.11
2023-03-04T22:22:02.668Z,9.06
2023-03-04T22:24:30.685Z,8.87
2023-03-04T22:26:59.897Z,8.90
2023-03-04T22:29:28.160Z,8.99
2023-03-04T22:31:56.788Z,9.01
2023-03-04T22:34:24.441Z,8.78
2023-03-04T22:36:52.446Z,8.83
2023-03-04T22:39:20.459Z,8.94
2023-03-04T22:41:49.033Z,9.03
2023-03-04T22:44:17.002Z,9.04
2023-03-04T22:46:44.784Z,8.78
2023-03-04T22:49:13.936Z,8.58
2023-03-04T22:51:43.296Z,8.56
2023-03-04T22:54:15.797Z,8.71
2023-03-04T22:56:44.175Z,8.92
2023-03-04T22:59:12.251Z,8.93
2023-03-04T23:01:40.543Z,8.76
2023-03-04T23:04:09.158Z,8.72
2023-03-04T23:06:37.803Z,8.81
2023-03-04T23:09:06.283Z,8.71
2023-03-04T23:11:39.461Z,8.75
2023-03-04T23:14:08.482Z,8.58
2023-03-04T23:16:41.092Z,8.44
2023-03-04T23:19:12.622Z,8.57
2023-03-04T23:21:41.202Z,8.57
2023-03-04T23:24:11.207Z,8.59
2023-03-04T23:26:41.178Z,8.64
2023-03-04T23:29:11.801Z,8.67
2023-03-04T23:31:39.913Z,8.74
2023-03-04T23:34:08.524Z,8.60
2023-03-04T23:36:38.132Z,8.52
2023-03-04T23:39:07.126Z,8.52
2023-03-04T23:41:36.117Z,8.57
2023-03-04T23:44:05.297Z,8.55
2023-03-04T23:46:33.227Z,8.36
2023-03-04T23:49:00.894Z,8.31
2023-03-04T23:51:29.794Z,8.27
2023-03-04T23:53:57.888Z,8.10
2023-03-04T23:56:29.413Z,8.07
2023-03-04T23:58:59.471Z,8.11
